sensor_id;sensor_type;location;lat;lon;timestamp;P1;durP1;ratioP1;P2;durP2;ratioP2
74059;SDS011;62414;53.436;8.828;2023-04-25T00:00:41;17.30;;;2.83;;
74059;SDS011;62414;53.436;8.828;2023-04-25T00:03:06;17.40;;;3.03;;
74059;SDS011;62414;53.436;8.828;2023-04-25T00:05:31;19.63;;;3.00;;
74059;SDS011;62414;53.436;8.828;2023-04-25T00:07:57;25.80;;;3.70;;
74059;SDS011;62414;53.436;8.828;2023-04-25T00:10:22;21.13;;;3.28;;
74059;SDS011;62414;53.436;8.828;2023-04-25T00:12:48;15.07;;;3.50;;
74059;SDS011;62414;53.436;8.828;2023-04-25T00:15:15;19.90;;;3.23;;
74059;SDS011;62414;53.436;8.828;2023-04-25T00:17:40;22.65;;;3.38;;
74059;SDS011;62414;53.436;8.828;2023-04-25T00:20:06;18.17;;;3.23;;
74059;SDS011;62414;53.436;8.828;2023-04-25T00:22:32;27.92;;;3.53;;
74059;SDS011;62414;53.436;8.828;2023-04-25T00:24:58;16.95;;;3.10;;
74059;SDS011;62414;53.436;8.828;2023-04-25T00:27:23;18.40;;;2.77;;
74059;SDS011;62414;53.436;8.828;2023-04-25T00:29:49;20.70;;;3.20;;
74059;SDS011;62414;53.436;8.828;2023-04-25T00:32:16;22.90;;;3.50;;
74059;SDS011;62414;53.436;8.828;2023-04-25T00:34:41;21.43;;;3.50;;
74059;SDS011;62414;53.436;8.828;2023-04-25T00:37:06;20.75;;;3.10;;
74059;SDS011;62414;53.436;8.828;2023-04-25T00:39:32;14.27;;;2.80;;
74059;SDS011;62414;53.436;8.828;2023-04-25T00:41:57;18.90;;;2.80;;
74059;SDS011;62414;53.436;8.828;2023-04-25T00:44:24;14.38;;;2.70;;
74059;SDS011;62414;53.436;8.828;2023-04-25T00:46:49;17.27;;;2.67;;
74059;SDS011;62414;53.436;8.828;2023-04-25T00:49:16;16.37;;;2.80;;
74059;SDS011;62414;53.436;8.828;2023-04-25T00:51:42;15.45;;;2.50;;
74059;SDS011;62414;53.436;8.828;2023-04-25T00:54:08;18.15;;;2.58;;
74059;SDS011;62414;53.436;8.828;2023-04-25T00:56:33;20.20;;;2.73;;
74059;SDS011;62414;53.436;8.828;2023-04-25T00:58:59;30.90;;;3.00;;
74059;SDS011;62414;53.436;8.828;2023-04-25T01:01:24;12.53;;;2.60;;
74059;SDS011;62414;53.436;8.828;2023-04-25T01:03:50;14.13;;;2.28;;
74059;SDS011;62414;53.436;8.828;2023-04-25T01:06:17;17.03;;;3.00;;
74059;SDS011;62414;53.436;8.828;2023-04-25T01:08:42;16.75;;;2.50;;
74059;SDS011;62414;53.436;8.828;2023-04-25T01:11:08;17.70;;;2.90;;
74059;SDS011;62414;53.436;8.828;2023-04-25T01:13:34;13.67;;;3.00;;
74059;SDS011;62414;53.436;8.828;2023-04-25T01:15:59;13.00;;;2.40;;
74059;SDS011;62414;53.436;8.828;2023-04-25T01:18:25;13.67;;;2.37;;
74059;SDS011;62414;53.436;8.828;2023-04-25T01:20:51;14.75;;;2.45;;
74059;SDS011;62414;53.436;8.828;2023-04-25T01:23:20;13.05;;;2.33;;
74059;SDS011;62414;53.436;8.828;2023-04-25T01:25:46;10.27;;;2.10;;
74059;SDS011;62414;53.436;8.828;2023-04-25T01:28:12;16.55;;;2.28;;
74059;SDS011;62414;53.436;8.828;2023-04-25T01:30:37;11.90;;;2.17;;
74059;SDS011;62414;53.436;8.828;2023-04-25T01:33:04;19.00;;;2.53;;
74059;SDS011;62414;53.436;8.828;2023-04-25T01:35:30;13.48;;;2.30;;
74059;SDS011;62414;53.436;8.828;2023-04-25T01:37:55;15.33;;;2.50;;
74059;SDS011;62414;53.436;8.828;2023-04-25T01:40:22;18.42;;;2.13;;
74059;SDS011;62414;53.436;8.828;2023-04-25T01:42:49;14.85;;;2.30;;
74059;SDS011;62414;53.436;8.828;2023-04-25T01:45:15;13.43;;;1.87;;
74059;SDS011;62414;53.436;8.828;2023-04-25T01:47:41;14.73;;;2.40;;
74059;SDS011;62414;53.436;8.828;2023-04-25T01:50:07;14.47;;;2.00;;
74059;SDS011;62414;53.436;8.828;2023-04-25T01:52:34;15.55;;;2.42;;
74059;SDS011;62414;53.436;8.828;2023-04-25T01:55:00;17.83;;;2.35;;
74059;SDS011;62414;53.436;8.828;2023-04-25T01:57:30;18.23;;;2.10;;
74059;SDS011;62414;53.436;8.828;2023-04-25T01:59:56;11.53;;;1.63;;
74059;SDS011;62414;53.436;8.828;2023-04-25T02:02:44;12.93;;;2.15;;
74059;SDS011;62414;53.436;8.828;2023-04-25T02:05:18;13.35;;;2.03;;
74059;SDS011;62414;53.436;8.828;2023-04-25T02:07:44;14.47;;;2.23;;
74059;SDS011;62414;53.436;8.828;2023-04-25T02:10:09;23.33;;;2.65;;
74059;SDS011;62414;53.436;8.828;2023-04-25T02:12:44;17.98;;;1.90;;
74059;SDS011;62414;53.436;8.828;2023-04-25T02:15:21;16.93;;;2.30;;
74059;SDS011;62414;53.436;8.828;2023-04-25T02:17:54;16.55;;;2.00;;
74059;SDS011;62414;53.436;8.828;2023-04-25T02:20:20;16.23;;;2.40;;
74059;SDS011;62414;53.436;8.828;2023-04-25T02:22:46;17.70;;;2.10;;
74059;SDS011;62414;53.436;8.828;2023-04-25T02:25:11;14.50;;;1.90;;
74059;SDS011;62414;53.436;8.828;2023-04-25T02:27:37;11.90;;;1.97;;
74059;SDS011;62414;53.436;8.828;2023-04-25T02:30:04;10.63;;;1.83;;
74059;SDS011;62414;53.436;8.828;2023-04-25T02:32:32;10.13;;;1.50;;
74059;SDS011;62414;53.436;8.828;2023-04-25T02:34:57;17.80;;;2.00;;
74059;SDS011;62414;53.436;8.828;2023-04-25T02:37:23;14.40;;;1.60;;
74059;SDS011;62414;53.436;8.828;2023-04-25T02:39:48;9.67;;;1.70;;
74059;SDS011;62414;53.436;8.828;2023-04-25T02:42:14;14.23;;;2.28;;
74059;SDS011;62414;53.436;8.828;2023-04-25T02:44:39;12.87;;;2.00;;
74059;SDS011;62414;53.436;8.828;2023-04-25T02:47:06;19.40;;;1.90;;
74059;SDS011;62414;53.436;8.828;2023-04-25T02:49:31;13.48;;;1.55;;
74059;SDS011;62414;53.436;8.828;2023-04-25T02:51:57;15.47;;;2.10;;
74059;SDS011;62414;53.436;8.828;2023-04-25T02:54:23;11.43;;;1.73;;
74059;SDS011;62414;53.436;8.828;2023-04-25T02:56:48;12.67;;;1.70;;
74059;SDS011;62414;53.436;8.828;2023-04-25T02:59:20;12.55;;;1.90;;
74059;SDS011;62414;53.436;8.828;2023-04-25T03:01:46;12.00;;;2.00;;
74059;SDS011;62414;53.436;8.828;2023-04-25T03:04:13;12.77;;;1.80;;
74059;SDS011;62414;53.436;8.828;2023-04-25T03:06:38;17.50;;;2.08;;
74059;SDS011;62414;53.436;8.828;2023-04-25T03:09:04;13.63;;;1.67;;
74059;SDS011;62414;53.436;8.828;2023-04-25T03:11:29;13.15;;;1.65;;
74059;SDS011;62414;53.436;8.828;2023-04-25T03:13:55;13.67;;;2.10;;
74059;SDS011;62414;53.436;8.828;2023-04-25T03:16:20;17.67;;;2.00;;
74059;SDS011;62414;53.436;8.828;2023-04-25T03:18:46;13.05;;;1.75;;
74059;SDS011;62414;53.436;8.828;2023-04-25T03:21:13;17.67;;;2.00;;
74059;SDS011;62414;53.436;8.828;2023-04-25T03:23:38;16.77;;;1.90;;
74059;SDS011;62414;53.436;8.828;2023-04-25T03:26:04;13.77;;;1.77;;
74059;SDS011;62414;53.436;8.828;2023-04-25T03:28:29;15.25;;;1.80;;
74059;SDS011;62414;53.436;8.828;2023-04-25T03:30:56;10.57;;;2.03;;
74059;SDS011;62414;53.436;8.828;2023-04-25T03:33:21;14.25;;;1.50;;
74059;SDS011;62414;53.436;8.828;2023-04-25T03:35:47;10.93;;;1.97;;
74059;SDS011;62414;53.436;8.828;2023-04-25T03:38:13;13.33;;;1.80;;
74059;SDS011;62414;53.436;8.828;2023-04-25T03:40:39;13.15;;;1.95;;
74059;SDS011;62414;53.436;8.828;2023-04-25T03:43:31;18.63;;;1.80;;
74059;SDS011;62414;53.436;8.828;2023-04-25T03:46:02;10.68;;;1.80;;
74059;SDS011;62414;53.436;8.828;2023-04-25T03:48:28;13.63;;;2.07;;
74059;SDS011;62414;53.436;8.828;2023-04-25T03:50:53;11.67;;;1.80;;
74059;SDS011;62414;53.436;8.828;2023-04-25T03:53:20;13.57;;;1.90;;
74059;SDS011;62414;53.436;8.828;2023-04-25T03:56:09;14.50;;;2.38;;
74059;SDS011;62414;53.436;8.828;2023-04-25T03:58:36;12.10;;;1.73;;
74059;SDS011;62414;53.436;8.828;2023-04-25T04:01:02;14.63;;;1.93;;
74059;SDS011;62414;53.436;8.828;2023-04-25T04:03:30;18.40;;;2.00;;
74059;SDS011;62414;53.436;8.828;2023-04-25T04:05:55;13.97;;;2.20;;
74059;SDS011;62414;53.436;8.828;2023-04-25T04:08:22;18.50;;;2.10;;
74059;SDS011;62414;53.436;8.828;2023-04-25T04:10:47;13.20;;;1.63;;
74059;SDS011;62414;53.436;8.828;2023-04-25T04:13:13;16.53;;;2.10;;
74059;SDS011;62414;53.436;8.828;2023-04-25T04:15:38;12.20;;;2.37;;
74059;SDS011;62414;53.436;8.828;2023-04-25T04:18:04;15.70;;;1.83;;
74059;SDS011;62414;53.436;8.828;2023-04-25T04:20:30;19.70;;;2.60;;
74059;SDS011;62414;53.436;8.828;2023-04-25T04:22:55;12.05;;;2.13;;
74059;SDS011;62414;53.436;8.828;2023-04-25T04:25:23;13.90;;;2.20;;
74059;SDS011;62414;53.436;8.828;2023-04-25T04:28:09;16.33;;;2.30;;
74059;SDS011;62414;53.436;8.828;2023-04-25T04:30:44;11.85;;;2.05;;
74059;SDS011;62414;53.436;8.828;2023-04-25T04:33:10;11.30;;;1.90;;
74059;SDS011;62414;53.436;8.828;2023-04-25T04:35:37;15.63;;;2.17;;
74059;SDS011;62414;53.436;8.828;2023-04-25T04:38:02;11.80;;;1.60;;
74059;SDS011;62414;53.436;8.828;2023-04-25T04:40:33;15.10;;;2.10;;
74059;SDS011;62414;53.436;8.828;2023-04-25T04:43:25;14.85;;;2.40;;
74059;SDS011;62414;53.436;8.828;2023-04-25T04:46:22;16.25;;;2.75;;
74059;SDS011;62414;53.436;8.828;2023-04-25T04:49:08;11.47;;;2.10;;
74059;SDS011;62414;53.436;8.828;2023-04-25T04:51:44;14.57;;;2.30;;
74059;SDS011;62414;53.436;8.828;2023-04-25T04:54:29;14.25;;;2.20;;
74059;SDS011;62414;53.436;8.828;2023-04-25T04:57:12;13.30;;;2.15;;
74059;SDS011;62414;53.436;8.828;2023-04-25T05:00:00;17.38;;;2.08;;
74059;SDS011;62414;53.436;8.828;2023-04-25T05:02:55;15.13;;;3.20;;
74059;SDS011;62414;53.436;8.828;2023-04-25T05:05:38;12.65;;;2.22;;
74059;SDS011;62414;53.436;8.828;2023-04-25T05:08:14;14.70;;;1.83;;
74059;SDS011;62414;53.436;8.828;2023-04-25T05:11:00;15.60;;;2.00;;
74059;SDS011;62414;53.436;8.828;2023-04-25T05:13:43;15.63;;;2.03;;
74059;SDS011;62414;53.436;8.828;2023-04-25T05:16:17;11.93;;;1.63;;
74059;SDS011;62414;53.436;8.828;2023-04-25T05:18:57;15.18;;;2.30;;
74059;SDS011;62414;53.436;8.828;2023-04-25T05:21:48;10.20;;;2.20;;
74059;SDS011;62414;53.436;8.828;2023-04-25T05:24:16;12.98;;;1.98;;
74059;SDS011;62414;53.436;8.828;2023-04-25T05:27:09;14.05;;;2.15;;
74059;SDS011;62414;53.436;8.828;2023-04-25T05:29:45;13.13;;;2.07;;
74059;SDS011;62414;53.436;8.828;2023-04-25T05:32:26;10.57;;;1.63;;
74059;SDS011;62414;53.436;8.828;2023-04-25T05:34:52;13.02;;;2.03;;
74059;SDS011;62414;53.436;8.828;2023-04-25T05:37:31;13.10;;;1.87;;
74059;SDS011;62414;53.436;8.828;2023-04-25T05:40:05;11.75;;;1.80;;
74059;SDS011;62414;53.436;8.828;2023-04-25T05:42:41;13.75;;;2.20;;
74059;SDS011;62414;53.436;8.828;2023-04-25T05:45:28;9.93;;;1.80;;
74059;SDS011;62414;53.436;8.828;2023-04-25T05:47:53;11.88;;;1.67;;
74059;SDS011;62414;53.436;8.828;2023-04-25T05:50:32;10.50;;;2.00;;
74059;SDS011;62414;53.436;8.828;2023-04-25T05:53:02;13.68;;;1.80;;
74059;SDS011;62414;53.436;8.828;2023-04-25T05:55:30;10.48;;;1.83;;
74059;SDS011;62414;53.436;8.828;2023-04-25T05:57:58;11.13;;;1.50;;
74059;SDS011;62414;53.436;8.828;2023-04-25T06:00:23;9.47;;;1.50;;
74059;SDS011;62414;53.436;8.828;2023-04-25T06:02:50;11.70;;;1.77;;
74059;SDS011;62414;53.436;8.828;2023-04-25T06:05:17;7.97;;;1.33;;
74059;SDS011;62414;53.436;8.828;2023-04-25T06:07:45;11.95;;;1.30;;
74059;SDS011;62414;53.436;8.828;2023-04-25T06:10:10;9.57;;;1.67;;
74059;SDS011;62414;53.436;8.828;2023-04-25T06:12:37;8.82;;;1.20;;
74059;SDS011;62414;53.436;8.828;2023-04-25T06:15:03;7.87;;;1.20;;
74059;SDS011;62414;53.436;8.828;2023-04-25T06:17:30;8.25;;;1.08;;
74059;SDS011;62414;53.436;8.828;2023-04-25T06:19:58;8.68;;;1.27;;
74059;SDS011;62414;53.436;8.828;2023-04-25T06:22:23;8.20;;;1.20;;
74059;SDS011;62414;53.436;8.828;2023-04-25T06:24:49;6.53;;;0.98;;
74059;SDS011;62414;53.436;8.828;2023-04-25T06:27:15;9.83;;;1.27;;
74059;SDS011;62414;53.436;8.828;2023-04-25T06:29:41;9.35;;;1.25;;
74059;SDS011;62414;53.436;8.828;2023-04-25T06:32:07;7.77;;;1.10;;
74059;SDS011;62414;53.436;8.828;2023-04-25T06:34:32;8.30;;;1.27;;
74059;SDS011;62414;53.436;8.828;2023-04-25T06:36:59;10.40;;;1.08;;
74059;SDS011;62414;53.436;8.828;2023-04-25T06:39:25;10.00;;;1.20;;
74059;SDS011;62414;53.436;8.828;2023-04-25T06:41:51;8.43;;;1.67;;
74059;SDS011;62414;53.436;8.828;2023-04-25T06:44:35;11.55;;;1.30;;
74059;SDS011;62414;53.436;8.828;2023-04-25T06:47:01;11.63;;;2.17;;
74059;SDS011;62414;53.436;8.828;2023-04-25T06:49:26;10.73;;;1.47;;
74059;SDS011;62414;53.436;8.828;2023-04-25T06:51:52;13.97;;;2.27;;
74059;SDS011;62414;53.436;8.828;2023-04-25T06:54:19;11.50;;;1.25;;
74059;SDS011;62414;53.436;8.828;2023-04-25T06:56:55;9.55;;;1.00;;
74059;SDS011;62414;53.436;8.828;2023-04-25T06:59:20;11.70;;;1.10;;
74059;SDS011;62414;53.436;8.828;2023-04-25T07:01:46;11.65;;;1.30;;
74059;SDS011;62414;53.436;8.828;2023-04-25T07:04:18;8.75;;;1.38;;
74059;SDS011;62414;53.436;8.828;2023-04-25T07:06:49;7.38;;;1.20;;
74059;SDS011;62414;53.436;8.828;2023-04-25T07:09:18;8.80;;;1.30;;
74059;SDS011;62414;53.436;8.828;2023-04-25T07:11:46;7.22;;;0.90;;
74059;SDS011;62414;53.436;8.828;2023-04-25T07:14:11;9.47;;;0.90;;
74059;SDS011;62414;53.436;8.828;2023-04-25T07:16:37;5.63;;;0.90;;
74059;SDS011;62414;53.436;8.828;2023-04-25T07:19:02;7.63;;;1.00;;
74059;SDS011;62414;53.436;8.828;2023-04-25T07:21:28;9.63;;;0.80;;
74059;SDS011;62414;53.436;8.828;2023-04-25T07:23:54;9.00;;;1.02;;
74059;SDS011;62414;53.436;8.828;2023-04-25T07:26:26;6.53;;;0.90;;
74059;SDS011;62414;53.436;8.828;2023-04-25T07:29:12;7.55;;;0.80;;
74059;SDS011;62414;53.436;8.828;2023-04-25T07:31:37;7.27;;;0.80;;
74059;SDS011;62414;53.436;8.828;2023-04-25T07:34:03;10.07;;;0.90;;
74059;SDS011;62414;53.436;8.828;2023-04-25T07:36:30;9.05;;;1.08;;
74059;SDS011;62414;53.436;8.828;2023-04-25T07:38:56;10.00;;;1.40;;
74059;SDS011;62414;53.436;8.828;2023-04-25T07:41:22;8.02;;;1.00;;
74059;SDS011;62414;53.436;8.828;2023-04-25T07:43:49;13.20;;;1.52;;
74059;SDS011;62414;53.436;8.828;2023-04-25T07:46:15;11.85;;;1.48;;
74059;SDS011;62414;53.436;8.828;2023-04-25T07:48:41;8.03;;;1.00;;
74059;SDS011;62414;53.436;8.828;2023-04-25T07:51:07;8.32;;;1.00;;
74059;SDS011;62414;53.436;8.828;2023-04-25T07:53:35;13.23;;;0.90;;
74059;SDS011;62414;53.436;8.828;2023-04-25T07:56:04;10.45;;;0.93;;
74059;SDS011;62414;53.436;8.828;2023-04-25T07:58:33;10.98;;;1.23;;
74059;SDS011;62414;53.436;8.828;2023-04-25T08:01:03;9.45;;;1.00;;
74059;SDS011;62414;53.436;8.828;2023-04-25T08:03:37;8.30;;;1.15;;
74059;SDS011;62414;53.436;8.828;2023-04-25T08:06:08;8.03;;;0.80;;
74059;SDS011;62414;53.436;8.828;2023-04-25T08:08:40;7.85;;;0.88;;
74059;SDS011;62414;53.436;8.828;2023-04-25T08:11:07;8.93;;;1.00;;
74059;SDS011;62414;53.436;8.828;2023-04-25T08:13:32;9.20;;;1.37;;
74059;SDS011;62414;53.436;8.828;2023-04-25T08:15:58;6.72;;;1.00;;
74059;SDS011;62414;53.436;8.828;2023-04-25T08:18:25;8.23;;;0.83;;
74059;SDS011;62414;53.436;8.828;2023-04-25T08:20:51;10.38;;;1.10;;
74059;SDS011;62414;53.436;8.828;2023-04-25T08:23:17;5.13;;;0.83;;
74059;SDS011;62414;53.436;8.828;2023-04-25T08:25:50;8.75;;;1.10;;
74059;SDS011;62414;53.436;8.828;2023-04-25T08:28:18;9.35;;;1.25;;
74059;SDS011;62414;53.436;8.828;2023-04-25T08:30:45;8.73;;;0.80;;
74059;SDS011;62414;53.436;8.828;2023-04-25T08:33:12;9.10;;;1.10;;
74059;SDS011;62414;53.436;8.828;2023-04-25T08:36:01;8.00;;;0.90;;
74059;SDS011;62414;53.436;8.828;2023-04-25T08:38:28;8.30;;;0.77;;
74059;SDS011;62414;53.436;8.828;2023-04-25T08:40:54;7.83;;;0.97;;
74059;SDS011;62414;53.436;8.828;2023-04-25T08:43:20;14.23;;;1.50;;
74059;SDS011;62414;53.436;8.828;2023-04-25T08:45:46;8.73;;;1.07;;
74059;SDS011;62414;53.436;8.828;2023-04-25T08:48:19;9.17;;;1.20;;
74059;SDS011;62414;53.436;8.828;2023-04-25T08:50:49;10.25;;;0.90;;
74059;SDS011;62414;53.436;8.828;2023-04-25T08:53:18;7.35;;;1.02;;
74059;SDS011;62414;53.436;8.828;2023-04-25T08:55:47;11.10;;;0.85;;
74059;SDS011;62414;53.436;8.828;2023-04-25T08:58:13;12.50;;;1.52;;
74059;SDS011;62414;53.436;8.828;2023-04-25T09:00:40;9.93;;;0.93;;
74059;SDS011;62414;53.436;8.828;2023-04-25T09:03:05;11.88;;;1.05;;
74059;SDS011;62414;53.436;8.828;2023-04-25T09:05:32;7.65;;;0.95;;
74059;SDS011;62414;53.436;8.828;2023-04-25T09:07:57;10.57;;;1.00;;
74059;SDS011;62414;53.436;8.828;2023-04-25T09:10:25;9.30;;;0.90;;
74059;SDS011;62414;53.436;8.828;2023-04-25T09:13:01;9.15;;;1.00;;
74059;SDS011;62414;53.436;8.828;2023-04-25T09:15:28;9.70;;;1.02;;
74059;SDS011;62414;53.436;8.828;2023-04-25T09:18:10;9.82;;;1.05;;
74059;SDS011;62414;53.436;8.828;2023-04-25T09:20:42;5.47;;;0.68;;
74059;SDS011;62414;53.436;8.828;2023-04-25T09:23:08;5.93;;;0.90;;
74059;SDS011;62414;53.436;8.828;2023-04-25T09:25:37;6.90;;;0.60;;
74059;SDS011;62414;53.436;8.828;2023-04-25T09:28:03;8.32;;;0.55;;
74059;SDS011;62414;53.436;8.828;2023-04-25T09:30:31;7.53;;;0.70;;
74059;SDS011;62414;53.436;8.828;2023-04-25T09:33:16;7.95;;;0.63;;
74059;SDS011;62414;53.436;8.828;2023-04-25T09:35:46;8.97;;;0.63;;
74059;SDS011;62414;53.436;8.828;2023-04-25T09:38:20;8.05;;;0.57;;
74059;SDS011;62414;53.436;8.828;2023-04-25T09:40:59;6.22;;;0.60;;
74059;SDS011;62414;53.436;8.828;2023-04-25T09:43:38;9.20;;;0.73;;
74059;SDS011;62414;53.436;8.828;2023-04-25T09:46:07;9.63;;;0.80;;
74059;SDS011;62414;53.436;8.828;2023-04-25T09:48:35;10.23;;;0.90;;
74059;SDS011;62414;53.436;8.828;2023-04-25T09:51:09;8.40;;;0.85;;
74059;SDS011;62414;53.436;8.828;2023-04-25T09:53:36;6.97;;;1.02;;
74059;SDS011;62414;53.436;8.828;2023-04-25T09:56:18;7.53;;;0.60;;
74059;SDS011;62414;53.436;8.828;2023-04-25T09:58:46;10.38;;;0.80;;
74059;SDS011;62414;53.436;8.828;2023-04-25T10:01:12;5.40;;;0.80;;
74059;SDS011;62414;53.436;8.828;2023-04-25T10:03:50;4.63;;;0.50;;
74059;SDS011;62414;53.436;8.828;2023-04-25T10:06:33;5.47;;;0.70;;
74059;SDS011;62414;53.436;8.828;2023-04-25T10:08:59;12.37;;;1.13;;
74059;SDS011;62414;53.436;8.828;2023-04-25T10:11:26;8.57;;;0.75;;
74059;SDS011;62414;53.436;8.828;2023-04-25T10:13:52;7.47;;;1.15;;
74059;SDS011;62414;53.436;8.828;2023-04-25T10:16:18;7.67;;;0.60;;
74059;SDS011;62414;53.436;8.828;2023-04-25T10:18:43;11.13;;;0.90;;
74059;SDS011;62414;53.436;8.828;2023-04-25T10:21:09;5.65;;;0.82;;
74059;SDS011;62414;53.436;8.828;2023-04-25T10:23:35;5.22;;;0.80;;
74059;SDS011;62414;53.436;8.828;2023-04-25T10:26:01;7.53;;;0.90;;
74059;SDS011;62414;53.436;8.828;2023-04-25T10:28:28;7.68;;;1.05;;
74059;SDS011;62414;53.436;8.828;2023-04-25T10:30:57;8.25;;;1.20;;
74059;SDS011;62414;53.436;8.828;2023-04-25T10:33:28;6.13;;;0.70;;
74059;SDS011;62414;53.436;8.828;2023-04-25T10:35:57;4.70;;;0.60;;
74059;SDS011;62414;53.436;8.828;2023-04-25T10:38:23;4.35;;;0.60;;
74059;SDS011;62414;53.436;8.828;2023-04-25T10:41:02;5.70;;;0.50;;
74059;SDS011;62414;53.436;8.828;2023-04-25T10:43:36;5.88;;;0.60;;
74059;SDS011;62414;53.436;8.828;2023-04-25T10:46:03;5.60;;;0.88;;
74059;SDS011;62414;53.436;8.828;2023-04-25T10:48:38;9.07;;;0.60;;
74059;SDS011;62414;53.436;8.828;2023-04-25T10:51:10;5.17;;;0.50;;
74059;SDS011;62414;53.436;8.828;2023-04-25T10:53:36;6.30;;;0.55;;
74059;SDS011;62414;53.436;8.828;2023-04-25T10:56:09;4.78;;;0.70;;
74059;SDS011;62414;53.436;8.828;2023-04-25T10:58:36;7.50;;;0.60;;
74059;SDS011;62414;53.436;8.828;2023-04-25T11:01:01;7.27;;;0.80;;
74059;SDS011;62414;53.436;8.828;2023-04-25T11:03:27;6.18;;;1.20;;
74059;SDS011;62414;53.436;8.828;2023-04-25T11:05:52;8.53;;;0.50;;
74059;SDS011;62414;53.436;8.828;2023-04-25T11:08:18;6.93;;;0.67;;
74059;SDS011;62414;53.436;8.828;2023-04-25T11:10:51;6.95;;;0.93;;
74059;SDS011;62414;53.436;8.828;2023-04-25T11:13:16;8.03;;;0.80;;
74059;SDS011;62414;53.436;8.828;2023-04-25T11:15:46;10.32;;;1.13;;
74059;SDS011;62414;53.436;8.828;2023-04-25T11:18:16;4.80;;;0.60;;
74059;SDS011;62414;53.436;8.828;2023-04-25T11:20:42;6.73;;;0.40;;
74059;SDS011;62414;53.436;8.828;2023-04-25T11:23:08;7.75;;;1.08;;
74059;SDS011;62414;53.436;8.828;2023-04-25T11:25:34;6.47;;;0.80;;
74059;SDS011;62414;53.436;8.828;2023-04-25T11:27:59;6.55;;;0.88;;
74059;SDS011;62414;53.436;8.828;2023-04-25T11:30:25;6.60;;;0.57;;
74059;SDS011;62414;53.436;8.828;2023-04-25T11:32:52;9.90;;;0.77;;
74059;SDS011;62414;53.436;8.828;2023-04-25T11:35:18;7.50;;;0.70;;
74059;SDS011;62414;53.436;8.828;2023-04-25T11:37:44;5.50;;;0.80;;
74059;SDS011;62414;53.436;8.828;2023-04-25T11:40:09;10.38;;;1.20;;
74059;SDS011;62414;53.436;8.828;2023-04-25T11:42:36;7.07;;;0.73;;
74059;SDS011;62414;53.436;8.828;2023-04-25T11:45:02;9.45;;;1.00;;
74059;SDS011;62414;53.436;8.828;2023-04-25T11:47:29;8.05;;;0.70;;
74059;SDS011;62414;53.436;8.828;2023-04-25T11:49:56;7.30;;;0.90;;
74059;SDS011;62414;53.436;8.828;2023-04-25T11:52:23;9.15;;;1.05;;
74059;SDS011;62414;53.436;8.828;2023-04-25T11:54:48;7.53;;;0.77;;
74059;SDS011;62414;53.436;8.828;2023-04-25T11:57:13;6.17;;;0.90;;
74059;SDS011;62414;53.436;8.828;2023-04-25T11:59:39;7.97;;;1.03;;
74059;SDS011;62414;53.436;8.828;2023-04-25T12:02:04;6.78;;;0.98;;
74059;SDS011;62414;53.436;8.828;2023-04-25T12:04:30;7.50;;;0.90;;
74059;SDS011;62414;53.436;8.828;2023-04-25T12:06:57;4.22;;;0.70;;
74059;SDS011;62414;53.436;8.828;2023-04-25T12:09:27;6.30;;;0.80;;
74059;SDS011;62414;53.436;8.828;2023-04-25T12:11:53;5.83;;;0.70;;
74059;SDS011;62414;53.436;8.828;2023-04-25T12:14:20;3.33;;;0.63;;
74059;SDS011;62414;53.436;8.828;2023-04-25T12:16:47;4.10;;;0.60;;
74059;SDS011;62414;53.436;8.828;2023-04-25T12:19:13;4.75;;;0.63;;
74059;SDS011;62414;53.436;8.828;2023-04-25T12:21:39;4.37;;;0.50;;
74059;SDS011;62414;53.436;8.828;2023-04-25T12:24:12;4.20;;;0.60;;
74059;SDS011;62414;53.436;8.828;2023-04-25T12:26:52;6.80;;;0.70;;
74059;SDS011;62414;53.436;8.828;2023-04-25T12:29:19;4.57;;;0.40;;
74059;SDS011;62414;53.436;8.828;2023-04-25T12:31:45;5.45;;;0.80;;
74059;SDS011;62414;53.436;8.828;2023-04-25T12:34:10;5.73;;;0.93;;
74059;SDS011;62414;53.436;8.828;2023-04-25T12:36:36;7.35;;;0.70;;
74059;SDS011;62414;53.436;8.828;2023-04-25T12:39:01;7.40;;;0.80;;
74059;SDS011;62414;53.436;8.828;2023-04-25T12:41:28;5.80;;;0.60;;
74059;SDS011;62414;53.436;8.828;2023-04-25T12:43:54;6.55;;;0.90;;
74059;SDS011;62414;53.436;8.828;2023-04-25T12:46:19;9.27;;;0.90;;
74059;SDS011;62414;53.436;8.828;2023-04-25T12:48:45;12.65;;;1.10;;
74059;SDS011;62414;53.436;8.828;2023-04-25T12:51:10;8.23;;;1.00;;
74059;SDS011;62414;53.436;8.828;2023-04-25T12:53:36;8.77;;;0.93;;
74059;SDS011;62414;53.436;8.828;2023-04-25T12:56:01;7.55;;;1.17;;
74059;SDS011;62414;53.436;8.828;2023-04-25T12:58:28;7.17;;;1.40;;
74059;SDS011;62414;53.436;8.828;2023-04-25T13:00:54;4.75;;;0.75;;
74059;SDS011;62414;53.436;8.828;2023-04-25T13:03:19;6.53;;;0.60;;
74059;SDS011;62414;53.436;8.828;2023-04-25T13:05:44;6.23;;;1.20;;
74059;SDS011;62414;53.436;8.828;2023-04-25T13:08:10;9.20;;;1.17;;
74059;SDS011;62414;53.436;8.828;2023-04-25T13:10:35;8.80;;;0.90;;
74059;SDS011;62414;53.436;8.828;2023-04-25T13:13:01;4.83;;;0.70;;
74059;SDS011;62414;53.436;8.828;2023-04-25T13:15:28;7.68;;;1.10;;
74059;SDS011;62414;53.436;8.828;2023-04-25T13:17:53;9.30;;;1.23;;
74059;SDS011;62414;53.436;8.828;2023-04-25T13:20:18;7.82;;;0.75;;
74059;SDS011;62414;53.436;8.828;2023-04-25T13:22:44;6.37;;;0.67;;
74059;SDS011;62414;53.436;8.828;2023-04-25T13:25:09;6.80;;;0.70;;
74059;SDS011;62414;53.436;8.828;2023-04-25T13:27:35;8.73;;;1.10;;
74059;SDS011;62414;53.436;8.828;2023-04-25T13:30:02;9.63;;;1.10;;
74059;SDS011;62414;53.436;8.828;2023-04-25T13:32:30;6.88;;;0.85;;
74059;SDS011;62414;53.436;8.828;2023-04-25T13:34:55;6.03;;;0.80;;
74059;SDS011;62414;53.436;8.828;2023-04-25T13:37:21;12.40;;;0.90;;
74059;SDS011;62414;53.436;8.828;2023-04-25T13:39:46;5.60;;;0.93;;
74059;SDS011;62414;53.436;8.828;2023-04-25T13:42:11;7.33;;;0.90;;
74059;SDS011;62414;53.436;8.828;2023-04-25T13:44:37;7.00;;;1.00;;
74059;SDS011;62414;53.436;8.828;2023-04-25T13:47:02;6.10;;;0.83;;
74059;SDS011;62414;53.436;8.828;2023-04-25T13:49:29;7.00;;;0.95;;
74059;SDS011;62414;53.436;8.828;2023-04-25T13:51:55;6.00;;;0.80;;
74059;SDS011;62414;53.436;8.828;2023-04-25T13:54:20;7.73;;;0.90;;
74059;SDS011;62414;53.436;8.828;2023-04-25T13:56:45;7.43;;;0.77;;
74059;SDS011;62414;53.436;8.828;2023-04-25T13:59:11;7.73;;;0.97;;
74059;SDS011;62414;53.436;8.828;2023-04-25T14:01:36;11.23;;;1.00;;
74059;SDS011;62414;53.436;8.828;2023-04-25T14:04:02;9.30;;;1.00;;
74059;SDS011;62414;53.436;8.828;2023-04-25T14:06:29;6.40;;;0.80;;
74059;SDS011;62414;53.436;8.828;2023-04-25T14:08:54;5.63;;;0.85;;
74059;SDS011;62414;53.436;8.828;2023-04-25T14:11:20;6.75;;;0.68;;
74059;SDS011;62414;53.436;8.828;2023-04-25T14:13:46;6.77;;;0.83;;
74059;SDS011;62414;53.436;8.828;2023-04-25T14:16:11;5.43;;;0.73;;
74059;SDS011;62414;53.436;8.828;2023-04-25T14:18:37;6.10;;;0.80;;
74059;SDS011;62414;53.436;8.828;2023-04-25T14:21:02;8.27;;;0.87;;
74059;SDS011;62414;53.436;8.828;2023-04-25T14:23:29;7.60;;;1.20;;
74059;SDS011;62414;53.436;8.828;2023-04-25T14:25:54;5.80;;;0.90;;
74059;SDS011;62414;53.436;8.828;2023-04-25T14:28:20;4.72;;;0.82;;
74059;SDS011;62414;53.436;8.828;2023-04-25T14:30:45;3.53;;;0.50;;
74059;SDS011;62414;53.436;8.828;2023-04-25T14:33:10;5.10;;;0.60;;
74059;SDS011;62414;53.436;8.828;2023-04-25T14:35:36;9.82;;;1.13;;
74059;SDS011;62414;53.436;8.828;2023-04-25T14:38:01;6.93;;;0.80;;
74059;SDS011;62414;53.436;8.828;2023-04-25T14:40:28;5.57;;;0.80;;
74059;SDS011;62414;53.436;8.828;2023-04-25T14:42:54;6.38;;;1.02;;
74059;SDS011;62414;53.436;8.828;2023-04-25T14:45:19;7.60;;;1.10;;
74059;SDS011;62414;53.436;8.828;2023-04-25T14:47:45;6.50;;;0.80;;